Scotland, Georgia
Current Conditions -  °F | °C
As of 10:55 PM on Thursday 18 Dec 2014 (Local Time) from KAZE Reporting Station
Clear Clear  
Wind Chill:   Ceiling: Unl
Heat Index:   Visibility: 10mi
Dew Point:   Wind: 3mph
Humidity: 87%   Direction: 250°WSW
Pressure: 30.14"   Gusts: NA
Location:  32.05°N, 82.82°W
Report Text: KAZE 190355Z AUTO 25003KT 10SM CLR 09/07 A3014 RMK AO2 T00870066
Loading
Personal Weather Stations






























Interactive Weather Map New forecast layout! Learn more

10-Day Weather Forecast

Advertisements
Track Severe Weather on mobile